Time;durP1;ratioP1;P1;durP2;ratioP2;P2;SDS_P1;SDS_P2;PMS_P1;PMS_P2;Temp;Humidity;BMP_temperature;BMP_pressure;BME280_temperature;BME280_humidity;BME280_pressure;Samples;Min_cycle;Max_cycle;Signal;HPM_P1;HPM_P2
2022/07/16 00:02:52;;;;;;;1.20;1.10;;;7.20;99.90;;;;;;5047450;28;20051;-69
2022/07/16 00:05:20;;;;;;;1.17;0.75;;;7.30;99.90;;;;;;5050143;28;20457;-69
2022/07/16 00:07:47;;;;;;;1.00;0.68;;;7.30;99.90;;;;;;5050839;28;20037;-69
2022/07/16 00:10:15;;;;;;;0.68;0.60;;;7.30;99.90;;;;;;5053637;28;20009;-68
2022/07/16 00:12:43;;;;;;;0.60;0.60;;;7.40;99.90;;;;;;5056473;28;20524;-69
2022/07/16 00:15:10;;;;;;;4.50;1.02;;;7.40;99.90;;;;;;5056584;28;20431;-69
2022/07/16 00:17:38;;;;;;;0.95;0.75;;;7.50;99.90;;;;;;5056037;28;20074;-69
2022/07/16 00:20:07;;;;;;;1.10;0.80;;;7.40;99.90;;;;;;5056252;28;20021;-69
2022/07/16 00:22:35;;;;;;;1.10;0.80;;;7.50;99.90;;;;;;5056170;28;20061;-69
2022/07/16 00:25:03;;;;;;;0.70;0.60;;;7.50;99.90;;;;;;5055992;28;20018;-69
2022/07/16 00:27:31;;;;;;;1.38;0.82;;;7.50;99.90;;;;;;5056036;28;20079;-69
2022/07/16 00:29:58;;;;;;;0.68;0.50;;;7.60;99.90;;;;;;5055837;28;20025;-69
2022/07/16 00:32:26;;;;;;;1.17;0.80;;;7.60;99.90;;;;;;5055823;28;20025;-69
2022/07/16 00:34:54;;;;;;;0.70;0.57;;;7.60;99.90;;;;;;5055915;28;20031;-69
2022/07/16 00:37:21;;;;;;;1.00;0.70;;;7.70;99.90;;;;;;5055995;28;20025;-69
2022/07/16 00:39:49;;;;;;;1.08;0.68;;;7.70;99.90;;;;;;5055470;28;20028;-69
2022/07/16 00:42:18;;;;;;;1.38;1.00;;;7.80;99.90;;;;;;5055654;28;20505;-68
2022/07/16 00:44:45;;;;;;;1.17;1.00;;;7.80;99.90;;;;;;5055653;28;20032;-68
2022/07/16 00:47:13;;;;;;;0.82;0.70;;;7.90;99.90;;;;;;5055649;28;20025;-68
2022/07/16 00:49:41;;;;;;;0.93;0.60;;;8.00;99.90;;;;;;5054080;28;20363;-74
2022/07/16 00:52:09;;;;;;;0.90;0.50;;;8.10;99.90;;;;;;5055574;28;20104;-69
2022/07/16 00:54:36;;;;;;;2.83;1.30;;;8.20;99.90;;;;;;5055141;28;20049;-68
2022/07/16 00:57:04;;;;;;;3.45;2.45;;;8.30;99.90;;;;;;5054859;28;20021;-68
2022/07/16 00:59:32;;;;;;;2.50;1.65;;;8.40;99.90;;;;;;5054881;28;20064;-75
2022/07/16 01:02:00;;;;;;;2.17;1.00;;;8.40;99.90;;;;;;5054578;28;20048;-69
2022/07/16 01:04:28;;;;;;;2.42;1.15;;;8.50;99.90;;;;;;5052318;28;20021;-69
2022/07/16 01:06:56;;;;;;;1.83;1.08;;;8.50;99.90;;;;;;5055189;28;20025;-68
2022/07/16 01:09:26;;;;;;;2.67;1.13;;;8.60;99.90;;;;;;5072289;28;20064;-69
2022/07/16 01:11:54;;;;;;;1.42;0.75;;;8.70;99.90;;;;;;5069786;28;20489;-69
2022/07/16 01:14:22;;;;;;;1.90;0.90;;;8.80;99.90;;;;;;5070203;28;20070;-68
2022/07/16 01:16:50;;;;;;;3.30;1.00;;;8.80;99.90;;;;;;5075198;28;20020;-68
2022/07/16 01:19:18;;;;;;;1.52;1.00;;;8.90;99.90;;;;;;5074984;28;20035;-69
2022/07/16 01:21:46;;;;;;;1.33;0.93;;;9.00;99.90;;;;;;5074878;28;20036;-75
2022/07/16 01:24:14;;;;;;;2.25;1.02;;;9.00;99.90;;;;;;5074902;28;20044;-69
2022/07/16 01:26:42;;;;;;;1.65;1.10;;;9.10;99.90;;;;;;5074951;28;20024;-68
2022/07/16 01:29:09;;;;;;;1.50;1.05;;;9.20;99.90;;;;;;5074926;28;20031;-68
2022/07/16 01:31:37;;;;;;;2.83;1.48;;;9.20;99.90;;;;;;5061215;28;20029;-70
2022/07/16 01:37:00;;;;;;;2.33;1.13;;;9.30;99.90;;;;;;5054920;28;20047;-69
2022/07/16 01:39:30;;;;;;;2.85;1.50;;;9.40;99.90;;;;;;5054195;28;20025;-68
2022/07/16 01:42:01;;;;;;;2.78;1.63;;;9.50;99.90;;;;;;5053989;28;20036;-68
2022/07/16 01:44:30;;;;;;;2.80;1.58;;;9.50;99.90;;;;;;5054009;28;20025;-68
2022/07/16 01:46:59;;;;;;;5.63;1.95;;;9.60;99.90;;;;;;5053199;28;20111;-69
2022/07/16 01:49:36;;;;;;;2.42;1.17;;;9.60;99.90;;;;;;5070611;28;20031;-69
2022/07/16 01:52:22;;;;;;;8.00;1.90;;;9.60;99.90;;;;;;5056231;28;20036;-73
2022/07/16 01:54:54;;;;;;;1.70;1.10;;;9.70;99.90;;;;;;5054241;28;20485;-70
2022/07/16 01:57:22;;;;;;;1.80;1.10;;;9.70;99.90;;;;;;5050138;28;20029;-69
2022/07/16 01:59:50;;;;;;;1.25;0.75;;;9.70;99.90;;;;;;5053826;28;20028;-69
2022/07/16 02:02:18;;;;;;;0.68;0.68;;;9.80;99.90;;;;;;5053389;28;20195;-69
2022/07/16 02:04:45;;;;;;;1.65;0.80;;;9.80;99.90;;;;;;5053015;28;20385;-73
2022/07/16 02:07:13;;;;;;;1.08;0.80;;;9.90;99.90;;;;;;5052124;28;20021;-71
2022/07/16 02:09:41;;;;;;;1.20;0.80;;;10.00;99.90;;;;;;5052206;28;20029;-71
2022/07/16 02:12:08;;;;;;;1.05;0.65;;;10.00;99.90;;;;;;5052088;28;20029;-71
2022/07/16 02:14:36;;;;;;;1.55;0.77;;;10.00;99.90;;;;;;5050704;28;20017;-71
2022/07/16 02:17:04;;;;;;;0.70;0.60;;;10.10;99.90;;;;;;5050672;28;20441;-71
2022/07/16 02:19:31;;;;;;;1.90;0.77;;;10.10;99.90;;;;;;5050590;28;20385;-71
2022/07/16 02:22:01;;;;;;;3.28;1.17;;;10.20;99.90;;;;;;5050502;28;20029;-71
2022/07/16 02:24:29;;;;;;;5.20;0.80;;;10.20;99.90;;;;;;5051592;28;20020;-71
2022/07/16 02:26:56;;;;;;;0.85;0.68;;;10.30;99.90;;;;;;5052796;28;20272;-74
2022/07/16 02:29:24;;;;;;;1.15;0.70;;;10.30;99.90;;;;;;5053122;28;20013;-71
2022/07/16 02:31:52;;;;;;;0.95;0.65;;;10.40;99.90;;;;;;5053507;28;20410;-71
2022/07/16 02:34:22;;;;;;;0.80;0.60;;;10.40;99.90;;;;;;5053864;28;20378;-71
2022/07/16 02:36:50;;;;;;;0.80;0.70;;;10.40;99.90;;;;;;5053594;28;20035;-74
2022/07/16 02:39:18;;;;;;;1.02;0.65;;;10.50;99.90;;;;;;5053524;28;20061;-72
2022/07/16 02:41:45;;;;;;;0.60;0.50;;;10.60;99.90;;;;;;5053645;28;20083;-71
2022/07/16 02:44:13;;;;;;;0.82;0.63;;;10.70;99.90;;;;;;5053448;28;20020;-71
2022/07/16 02:46:41;;;;;;;1.08;0.50;;;10.80;99.90;;;;;;5053445;28;20035;-71
2022/07/16 02:49:08;;;;;;;1.38;0.70;;;10.80;99.90;;;;;;5053368;28;20078;-71
2022/07/16 02:51:36;;;;;;;0.60;0.60;;;10.90;99.90;;;;;;5053370;28;20025;-71
2022/07/16 02:54:04;;;;;;;1.05;0.63;;;10.90;99.90;;;;;;5053162;28;20029;-71
2022/07/16 02:56:32;;;;;;;3.75;0.47;;;10.90;99.90;;;;;;5053283;28;20024;-71
2022/07/16 02:59:00;;;;;;;0.50;0.40;;;10.90;99.90;;;;;;5053263;28;20025;-71
2022/07/16 03:01:28;;;;;;;0.82;0.60;;;10.90;99.90;;;;;;5053154;28;20179;-71
2022/07/16 03:03:55;;;;;;;0.82;0.65;;;11.00;99.90;;;;;;5053281;28;20027;-71
2022/07/16 03:06:26;;;;;;;0.73;0.60;;;11.00;99.90;;;;;;5053332;28;20025;-75
2022/07/16 03:08:54;;;;;;;1.27;0.50;;;11.00;99.90;;;;;;5053497;28;20021;-71
2022/07/16 03:11:22;;;;;;;0.60;0.50;;;11.00;99.90;;;;;;5053396;28;20017;-71
2022/07/16 03:13:49;;;;;;;0.80;0.60;;;11.00;99.90;;;;;;5053061;28;20029;-71
2022/07/16 03:16:17;;;;;;;0.57;0.40;;;11.00;99.90;;;;;;5053137;28;20049;-72
2022/07/16 03:18:45;;;;;;;1.08;0.60;;;11.00;99.90;;;;;;5053146;28;20402;-73
2022/07/16 03:21:12;;;;;;;0.30;0.30;;;11.00;99.90;;;;;;5052978;28;20025;-71
2022/07/16 03:23:40;;;;;;;0.40;0.35;;;11.00;99.90;;;;;;5053239;28;20500;-71
2022/07/16 03:26:08;;;;;;;0.50;0.50;;;11.10;99.90;;;;;;5053267;28;20028;-71
2022/07/16 03:28:36;;;;;;;0.43;0.43;;;11.20;99.90;;;;;;5053066;28;20052;-71
2022/07/16 03:31:04;;;;;;;0.57;0.57;;;11.30;99.90;;;;;;5053035;28;20031;-75
2022/07/16 03:33:32;;;;;;;0.63;0.57;;;11.30;99.90;;;;;;5052856;28;20024;-71
2022/07/16 03:36:00;;;;;;;0.60;0.60;;;11.40;99.90;;;;;;5052960;28;20021;-71
2022/07/16 03:41:14;;;;;;;0.77;0.60;;;11.40;99.90;;;;;;5053464;28;20043;-71
2022/07/16 03:43:41;;;;;;;1.05;0.50;;;11.40;99.90;;;;;;5053791;28;20082;-71
2022/07/16 03:46:12;;;;;;;1.02;0.60;;;11.40;99.90;;;;;;5056917;28;20029;-71
2022/07/16 03:48:41;;;;;;;0.68;0.65;;;11.40;99.90;;;;;;5056786;28;20025;-71
2022/07/16 03:51:09;;;;;;;1.58;0.85;;;11.50;99.90;;;;;;5056825;28;20104;-71
2022/07/16 03:53:37;;;;;;;1.08;0.60;;;11.50;99.90;;;;;;5056553;28;20064;-71
2022/07/16 03:56:06;;;;;;;2.80;0.90;;;11.50;99.90;;;;;;5056647;28;20021;-71
2022/07/16 03:58:33;;;;;;;1.20;0.70;;;11.50;99.90;;;;;;5056656;28;20029;-72
2022/07/16 04:01:01;;;;;;;0.70;0.68;;;11.50;99.90;;;;;;5056269;28;20398;-72
2022/07/16 04:03:29;;;;;;;1.92;0.80;;;11.50;99.90;;;;;;5057177;28;20017;-71
2022/07/16 04:05:57;;;;;;;2.65;0.85;;;11.50;99.90;;;;;;5056610;28;20477;-71
2022/07/16 04:08:24;;;;;;;1.27;0.80;;;11.50;99.90;;;;;;5056412;28;20021;-71
2022/07/16 04:10:52;;;;;;;1.15;0.65;;;11.50;99.90;;;;;;5056267;28;20101;-72
2022/07/16 04:13:20;;;;;;;0.95;0.65;;;11.50;99.90;;;;;;5056157;28;20017;-72
2022/07/16 04:15:48;;;;;;;0.80;0.63;;;11.60;99.90;;;;;;5056219;28;20112;-74
2022/07/16 04:18:16;;;;;;;1.65;0.68;;;11.60;99.90;;;;;;5056299;28;20496;-71
2022/07/16 04:20:43;;;;;;;1.38;0.60;;;11.60;99.90;;;;;;5056346;28;20090;-74
2022/07/16 04:23:11;;;;;;;0.45;0.40;;;11.60;99.90;;;;;;5056167;28;20102;-71
2022/07/16 04:25:39;;;;;;;0.75;0.60;;;11.60;99.90;;;;;;5056147;28;20624;-71
2022/07/16 04:28:07;;;;;;;0.80;0.60;;;11.60;99.90;;;;;;5056065;28;20418;-75
2022/07/16 04:30:37;;;;;;;0.73;0.50;;;11.70;99.90;;;;;;5056159;28;20021;-71
2022/07/16 04:33:05;;;;;;;0.80;0.60;;;11.70;99.90;;;;;;5055854;28;20032;-75
2022/07/16 04:35:33;;;;;;;0.93;0.60;;;11.70;99.90;;;;;;5056023;28;20080;-71
2022/07/16 04:38:00;;;;;;;0.65;0.50;;;11.80;99.90;;;;;;5055930;28;20481;-74
2022/07/16 04:40:28;;;;;;;0.32;0.30;;;11.80;99.90;;;;;;5054740;28;20048;-72
2022/07/16 04:42:56;;;;;;;0.50;0.38;;;11.80;99.90;;;;;;5055751;28;20044;-72
2022/07/16 04:45:27;;;;;;;0.47;0.40;;;11.80;99.90;;;;;;5055771;28;20055;-71
2022/07/16 04:47:54;;;;;;;0.47;0.40;;;11.80;99.90;;;;;;5055744;28;20039;-72
2022/07/16 04:50:21;;;;;;;0.85;0.50;;;11.80;99.90;;;;;;5055606;28;20460;-72
2022/07/16 04:52:49;;;;;;;0.63;0.57;;;11.90;99.90;;;;;;5055439;28;20021;-72
2022/07/16 04:55:16;;;;;;;1.23;0.70;;;11.90;99.90;;;;;;5055287;28;20460;-72
2022/07/16 04:57:43;;;;;;;1.13;0.60;;;12.00;99.90;;;;;;5054326;28;20384;-71
2022/07/16 05:00:11;;;;;;;0.98;0.60;;;11.90;99.90;;;;;;5055668;28;20480;-74
2022/07/16 05:02:56;;;;;;;0.95;0.65;;;11.90;99.90;;;;;;5055154;28;20404;-74
2022/07/16 05:05:35;;;;;;;0.40;0.40;;;11.90;99.90;;;;;;5055417;28;20032;-72
2022/07/16 05:08:04;;;;;;;0.60;0.50;;;11.90;99.90;;;;;;5055239;28;20036;-72
2022/07/16 05:10:32;;;;;;;1.08;0.40;;;11.90;99.90;;;;;;5055420;28;20369;-74
2022/07/16 05:12:59;;;;;;;0.70;0.40;;;11.80;99.90;;;;;;5055067;28;20078;-72
2022/07/16 05:15:28;;;;;;;0.85;0.52;;;11.80;99.90;;;;;;5055069;28;20033;-72
2022/07/16 05:17:56;;;;;;;0.60;0.60;;;11.80;99.90;;;;;;5055186;28;20033;-74
2022/07/16 05:20:23;;;;;;;0.75;0.50;;;11.80;99.90;;;;;;5055217;28;20093;-72
2022/07/16 05:22:51;;;;;;;0.80;0.45;;;11.70;99.90;;;;;;5055335;28;20052;-72
2022/07/16 05:25:18;;;;;;;0.60;0.52;;;11.80;99.90;;;;;;5053626;28;20483;-72
2022/07/16 05:27:46;;;;;;;0.88;0.32;;;11.80;99.90;;;;;;5054990;28;20036;-73
2022/07/16 05:30:14;;;;;;;1.05;0.70;;;11.80;99.90;;;;;;5054958;28;20366;-75
2022/07/16 05:32:43;;;;;;;1.13;0.50;;;11.80;99.90;;;;;;5054761;28;20478;-74
2022/07/16 05:35:12;;;;;;;1.08;0.60;;;11.70;99.90;;;;;;5054653;28;20032;-71
2022/07/16 05:37:43;;;;;;;0.95;0.50;;;11.70;99.90;;;;;;5054559;28;20032;-72
2022/07/16 05:40:12;;;;;;;4.57;0.63;;;11.70;99.90;;;;;;5054568;28;20029;-74
2022/07/16 05:42:40;;;;;;;1.20;0.55;;;11.70;99.90;;;;;;5054678;28;20029;-71
2022/07/16 05:45:11;;;;;;;0.30;0.30;;;11.70;99.90;;;;;;5054628;28;20052;-72
2022/07/16 05:47:38;;;;;;;0.75;0.50;;;11.60;99.90;;;;;;5054769;28;20080;-74
2022/07/16 05:50:07;;;;;;;0.85;0.50;;;11.60;99.90;;;;;;5053770;28;20107;-72
2022/07/16 05:52:34;;;;;;;0.77;0.43;;;11.60;99.90;;;;;;5054175;28;20033;-74
2022/07/16 05:55:01;;;;;;;0.40;0.40;;;11.60;99.90;;;;;;5054377;28;20021;-71
2022/07/16 05:57:29;;;;;;;1.35;0.68;;;11.60;99.90;;;;;;5053175;28;20359;-71
2022/07/16 05:59:56;;;;;;;1.95;0.77;;;11.50;99.90;;;;;;5054410;28;20104;-72
2022/07/16 06:02:23;;;;;;;2.47;0.82;;;11.50;99.90;;;;;;5054036;28;20049;-72
2022/07/16 06:04:51;;;;;;;1.73;0.95;;;11.60;99.90;;;;;;5054293;28;20013;-71
2022/07/16 06:07:18;;;;;;;1.88;0.98;;;11.50;99.90;;;;;;5053366;28;20021;-72
2022/07/16 06:09:45;;;;;;;1.73;0.98;;;11.50;99.90;;;;;;5054090;28;20107;-71
2022/07/16 06:12:13;;;;;;;2.47;0.90;;;11.50;99.90;;;;;;5053956;28;20033;-71
2022/07/16 06:14:40;;;;;;;1.67;1.20;;;11.50;99.90;;;;;;5054090;28;20025;-72
2022/07/16 06:17:07;;;;;;;1.73;0.95;;;11.40;99.90;;;;;;5054087;28;20552;-71
2022/07/16 06:19:35;;;;;;;2.67;1.33;;;11.40;99.90;;;;;;5053932;28;20373;-74
2022/07/16 06:22:02;;;;;;;1.45;1.10;;;11.40;99.90;;;;;;5053761;28;20389;-72
2022/07/16 06:24:29;;;;;;;0.93;0.73;;;11.30;99.90;;;;;;5053853;28;20044;-72
2022/07/16 06:26:56;;;;;;;1.20;0.80;;;11.30;99.90;;;;;;5053828;28;20040;-72
2022/07/16 06:29:24;;;;;;;2.92;0.82;;;11.30;99.90;;;;;;5054043;28;20445;-75
2022/07/16 06:31:51;;;;;;;1.95;1.27;;;11.20;99.90;;;;;;5053604;28;20031;-72
2022/07/16 06:34:18;;;;;;;1.05;0.77;;;11.20;99.90;;;;;;5053559;28;20022;-74
2022/07/16 06:36:45;;;;;;;1.35;0.82;;;11.20;99.90;;;;;;5053746;28;20477;-74
2022/07/16 06:39:13;;;;;;;1.25;0.70;;;11.20;99.90;;;;;;5053721;28;20021;-71
2022/07/16 06:41:40;;;;;;;2.78;0.60;;;11.20;99.90;;;;;;5054172;28;20381;-75
2022/07/16 06:44:09;;;;;;;0.82;0.40;;;11.20;99.90;;;;;;5053443;28;20035;-71
2022/07/16 06:46:37;;;;;;;0.98;0.60;;;11.10;99.90;;;;;;5053644;28;20128;-71
2022/07/16 06:49:05;;;;;;;1.38;0.70;;;11.10;99.90;;;;;;5053797;28;20029;-74
2022/07/16 06:51:32;;;;;;;0.77;0.70;;;11.10;99.90;;;;;;5053321;28;20025;-71
2022/07/16 06:54:00;;;;;;;1.40;0.90;;;11.10;99.90;;;;;;5053380;28;20020;-72
2022/07/16 06:56:27;;;;;;;2.03;1.00;;;11.10;99.90;;;;;;5053403;28;20061;-72
2022/07/16 06:58:54;;;;;;;1.90;0.90;;;11.10;99.90;;;;;;5053305;28;20028;-74
2022/07/16 07:01:22;;;;;;;1.70;1.10;;;11.10;99.90;;;;;;5053046;28;20398;-72
2022/07/16 07:03:50;;;;;;;2.15;1.15;;;11.00;99.90;;;;;;5053509;28;20021;-72
2022/07/16 07:06:17;;;;;;;2.28;1.17;;;11.00;99.90;;;;;;5053375;28;20056;-72
2022/07/16 07:08:45;;;;;;;2.22;1.15;;;11.00;99.90;;;;;;5053194;28;20040;-71
2022/07/16 07:11:13;;;;;;;1.25;1.00;;;11.10;99.90;;;;;;5053331;28;20028;-74
2022/07/16 07:13:40;;;;;;;2.63;1.23;;;11.00;99.90;;;;;;5052838;28;20029;-71
2022/07/16 07:16:07;;;;;;;2.97;0.90;;;11.10;99.90;;;;;;5053110;28;20096;-74
2022/07/16 07:18:35;;;;;;;1.42;0.88;;;11.00;99.90;;;;;;5055723;28;20155;-73
2022/07/16 07:21:02;;;;;;;1.15;0.90;;;11.10;99.90;;;;;;5057253;28;20025;-71
2022/07/16 07:23:30;;;;;;;1.60;0.88;;;11.10;99.90;;;;;;5057177;28;20416;-71
2022/07/16 07:25:58;;;;;;;2.67;0.88;;;11.10;99.90;;;;;;5057135;28;20017;-71
2022/07/16 07:28:27;;;;;;;1.00;0.80;;;11.20;99.90;;;;;;5057137;28;20025;-74
2022/07/16 07:30:56;;;;;;;1.67;0.80;;;11.10;99.90;;;;;;5057532;28;20104;-72
2022/07/16 07:33:24;;;;;;;1.00;0.77;;;11.20;99.90;;;;;;5056916;28;20036;-72
2022/07/16 07:35:52;;;;;;;1.63;0.90;;;11.10;99.90;;;;;;5057260;28;20017;-71
2022/07/16 07:38:19;;;;;;;1.65;1.10;;;11.20;99.90;;;;;;5057154;28;20025;-71
2022/07/16 07:40:47;;;;;;;3.08;1.85;;;11.20;99.90;;;;;;5056857;28;20032;-71
2022/07/16 07:43:14;;;;;;;2.65;1.88;;;11.10;99.90;;;;;;5056806;28;20055;-71
2022/07/16 07:45:44;;;;;;;3.03;1.50;;;11.10;99.90;;;;;;5056809;28;20048;-72
2022/07/16 07:48:13;;;;;;;2.67;1.58;;;11.10;99.90;;;;;;5056939;28;20082;-74
2022/07/16 07:50:41;;;;;;;1.65;1.13;;;11.20;99.90;;;;;;5056696;28;20029;-72
2022/07/16 07:53:08;;;;;;;1.88;1.30;;;11.20;99.90;;;;;;5056256;28;20035;-73
2022/07/16 07:55:36;;;;;;;2.67;1.38;;;11.20;99.90;;;;;;5054179;28;20556;-72
2022/07/16 07:58:05;;;;;;;2.03;1.25;;;11.20;99.90;;;;;;5055636;28;20025;-73
2022/07/16 08:00:32;;;;;;;2.58;1.42;;;11.20;99.90;;;;;;5056184;28;20056;-74
2022/07/16 08:03:00;;;;;;;1.60;1.20;;;11.10;99.90;;;;;;5055984;28;20045;-73
2022/07/16 08:05:27;;;;;;;1.98;1.10;;;11.10;99.90;;;;;;5056485;28;20120;-73
2022/07/16 08:07:55;;;;;;;1.75;1.00;;;11.10;99.90;;;;;;5051721;28;20037;-75
2022/07/16 08:10:22;;;;;;;1.45;1.00;;;11.10;99.90;;;;;;5055462;28;20433;-73
2022/07/16 08:12:49;;;;;;;1.58;1.00;;;11.00;99.90;;;;;;5041015;28;20085;-76
2022/07/16 08:15:17;;;;;;;1.75;0.70;;;11.00;99.90;;;;;;5037019;28;20029;-76
2022/07/16 08:17:44;;;;;;;1.33;0.75;;;11.00;99.90;;;;;;5037570;28;20075;-73
2022/07/16 08:20:13;;;;;;;0.73;0.73;;;11.10;99.90;;;;;;5035930;28;20079;-73
2022/07/16 08:22:41;;;;;;;1.17;0.65;;;11.10;99.90;;;;;;5035726;28;20402;-74
2022/07/16 08:27:54;;;;;;;1.48;0.70;;;11.10;99.90;;;;;;5055328;28;20489;-75
2022/07/16 08:30:22;;;;;;;1.08;0.70;;;11.10;99.90;;;;;;5054461;28;20466;-73
2022/07/16 08:32:49;;;;;;;1.38;0.85;;;11.10;99.90;;;;;;5054794;28;20017;-76
2022/07/16 08:35:17;;;;;;;0.90;0.70;;;11.10;99.90;;;;;;5054980;28;20139;-73
2022/07/16 08:37:46;;;;;;;0.90;0.70;;;11.10;99.90;;;;;;5053283;28;20060;-73
2022/07/16 08:40:17;;;;;;;0.77;0.57;;;11.20;99.90;;;;;;5054875;28;20017;-73
2022/07/16 08:42:46;;;;;;;1.00;0.60;;;11.20;99.90;;;;;;5052921;28;20037;-74
2022/07/16 08:45:15;;;;;;;1.58;0.60;;;11.20;99.90;;;;;;5048018;28;20501;-74
2022/07/16 08:47:42;;;;;;;0.93;0.65;;;11.20;99.90;;;;;;5049005;28;20121;-73
2022/07/16 08:50:15;;;;;;;1.00;0.60;;;11.20;99.90;;;;;;5046930;28;20017;-72
2022/07/16 08:52:51;;;;;;;0.65;0.60;;;11.20;99.90;;;;;;5049113;28;20466;-74
2022/07/16 08:55:22;;;;;;;0.77;0.68;;;11.20;99.90;;;;;;5044906;28;20048;-72
2022/07/16 08:57:50;;;;;;;1.00;0.60;;;11.20;99.90;;;;;;5045601;28;20075;-75
2022/07/16 09:00:20;;;;;;;1.20;0.60;;;11.20;99.90;;;;;;5044423;28;20052;-75
2022/07/16 09:02:47;;;;;;;0.70;0.60;;;11.20;99.90;;;;;;5044738;28;20056;-72
2022/07/16 09:05:15;;;;;;;2.38;0.60;;;11.20;99.90;;;;;;5043308;28;20342;-72
2022/07/16 09:07:44;;;;;;;0.88;0.70;;;11.20;99.90;;;;;;5046250;28;20014;-75
2022/07/16 09:10:11;;;;;;;0.88;0.50;;;11.20;99.90;;;;;;5044587;28;20104;-75
2022/07/16 09:12:46;;;;;;;0.98;0.88;;;11.20;99.90;;;;;;5044679;28;20482;-73
2022/07/16 09:15:46;;;;;;;0.93;0.70;;;11.20;99.90;;;;;;5045226;28;20028;-75
2022/07/16 09:18:20;;;;;;;1.70;0.80;;;11.20;99.90;;;;;;5009923;28;20688;-73
2022/07/16 09:21:07;;;;;;;1.13;0.68;;;11.20;99.90;;;;;;5040773;28;20017;-73
2022/07/16 09:23:38;;;;;;;1.42;0.80;;;11.20;99.90;;;;;;5041018;28;20452;-75
2022/07/16 09:26:08;;;;;;;1.13;0.63;;;11.20;99.90;;;;;;5043478;28;20158;-74
2022/07/16 09:28:46;;;;;;;1.48;0.63;;;11.20;99.90;;;;;;5040170;28;20021;-73
2022/07/16 09:31:31;;;;;;;1.17;0.80;;;11.20;99.90;;;;;;5041310;28;21663;-76
2022/07/16 09:34:13;;;;;;;1.13;0.77;;;11.20;99.90;;;;;;5039195;28;20071;-73
2022/07/16 09:36:55;;;;;;;2.67;0.70;;;11.20;99.90;;;;;;5044344;28;20028;-75
2022/07/16 09:39:22;;;;;;;0.85;0.60;;;11.10;99.90;;;;;;5043522;28;20047;-73
2022/07/16 09:41:49;;;;;;;0.90;0.70;;;11.20;99.90;;;;;;5043835;28;20147;-72
2022/07/16 09:44:19;;;;;;;1.42;0.80;;;11.20;99.90;;;;;;5043567;28;20043;-73
2022/07/16 09:47:12;;;;;;;1.35;0.95;;;11.20;99.90;;;;;;5044506;28;20029;-73
2022/07/16 09:49:50;;;;;;;0.80;0.70;;;11.20;99.90;;;;;;5044868;28;20108;-74
2022/07/16 09:52:34;;;;;;;1.00;0.70;;;11.20;99.90;;;;;;5045834;28;20048;-74
2022/07/16 09:55:02;;;;;;;1.90;0.70;;;11.20;99.90;;;;;;5046344;28;20021;-73
2022/07/16 09:57:30;;;;;;;0.80;0.50;;;11.10;99.90;;;;;;5047194;28;20044;-72
2022/07/16 09:59:59;;;;;;;0.90;0.60;;;11.10;99.90;;;;;;5047471;28;20045;-73
2022/07/16 10:02:28;;;;;;;1.70;0.70;;;11.10;99.90;;;;;;5046771;28;20059;-75
2022/07/16 10:04:56;;;;;;;0.85;0.60;;;11.10;99.90;;;;;;5034450;28;20429;-75
2022/07/16 10:07:23;;;;;;;0.90;0.70;;;11.10;99.90;;;;;;5036736;28;20053;-75
2022/07/16 10:09:51;;;;;;;1.73;0.60;;;11.10;99.90;;;;;;5035959;28;20370;-73
2022/07/16 10:12:20;;;;;;;1.02;0.63;;;11.10;99.90;;;;;;5035472;28;20036;-72
2022/07/16 10:14:53;;;;;;;0.90;0.68;;;11.00;99.90;;;;;;5037435;28;20041;-76
2022/07/16 10:17:23;;;;;;;1.27;0.50;;;11.00;99.90;;;;;;5038118;28;20025;-75
2022/07/16 10:20:17;;;;;;;0.55;0.40;;;11.10;99.90;;;;;;5038334;28;20550;-75
2022/07/16 10:22:47;;;;;;;1.02;0.93;;;11.00;99.90;;;;;;5034630;28;20569;-74
2022/07/16 10:25:24;;;;;;;0.50;0.40;;;11.00;99.90;;;;;;5035842;28;20509;-76
2022/07/16 10:27:53;;;;;;;1.40;0.50;;;11.00;99.90;;;;;;5035218;28;20026;-72
2022/07/16 10:30:26;;;;;;;1.85;0.50;;;11.00;99.90;;;;;;5036017;28;20721;-73
2022/07/16 10:33:02;;;;;;;0.47;0.40;;;11.00;99.90;;;;;;5038211;28;20100;-72
2022/07/16 10:35:43;;;;;;;0.63;0.60;;;10.90;99.90;;;;;;5039420;28;20033;-73
2022/07/16 10:38:15;;;;;;;0.82;0.68;;;10.90;99.90;;;;;;5041470;28;20435;-72
2022/07/16 10:40:44;;;;;;;1.30;0.60;;;10.90;99.90;;;;;;5043702;28;20124;-74
2022/07/16 10:43:19;;;;;;;0.90;0.68;;;10.80;99.90;;;;;;5050146;28;20482;-73
2022/07/16 10:45:54;;;;;;;0.60;0.40;;;10.80;99.90;;;;;;5050281;28;20082;-72
2022/07/16 10:48:23;;;;;;;0.70;0.43;;;10.80;99.90;;;;;;5050043;28;20028;-73
2022/07/16 10:51:13;;;;;;;0.68;0.40;;;10.70;99.90;;;;;;5034110;28;20025;-75
2022/07/16 10:54:01;;;;;;;1.20;0.47;;;10.70;99.90;;;;;;5034410;28;20021;-76
2022/07/16 10:56:37;;;;;;;1.00;0.52;;;10.70;99.90;;;;;;5034810;28;20168;-74
2022/07/16 10:59:11;;;;;;;0.68;0.50;;;10.70;99.90;;;;;;5031691;28;20101;-75
2022/07/16 11:01:40;;;;;;;1.20;0.80;;;10.70;99.90;;;;;;5031341;28;20510;-75
2022/07/16 11:04:12;;;;;;;0.90;0.60;;;10.60;99.90;;;;;;5030496;28;20041;-73
2022/07/16 11:06:40;;;;;;;0.75;0.50;;;10.60;99.90;;;;;;5033914;28;20036;-76
2022/07/16 11:09:09;;;;;;;0.98;0.77;;;10.60;99.90;;;;;;5035450;28;20025;-76
2022/07/16 11:11:39;;;;;;;0.60;0.50;;;10.60;99.90;;;;;;5032927;28;20386;-75
2022/07/16 11:14:09;;;;;;;0.73;0.60;;;10.50;99.90;;;;;;5033875;28;20024;-76
2022/07/16 11:16:47;;;;;;;1.17;0.77;;;10.50;99.90;;;;;;5032189;28;20022;-76
2022/07/16 11:19:15;;;;;;;2.17;1.05;;;10.50;99.90;;;;;;5032273;28;20021;-76
2022/07/16 11:21:56;;;;;;;0.55;0.55;;;10.50;99.90;;;;;;5031183;28;20052;-73
2022/07/16 11:24:25;;;;;;;0.60;0.55;;;10.50;99.90;;;;;;5035889;28;20169;-73
2022/07/16 11:26:53;;;;;;;0.77;0.50;;;10.40;99.90;;;;;;5034434;28;20165;-76
2022/07/16 11:29:24;;;;;;;0.45;0.40;;;10.40;99.90;;;;;;5035749;28;20030;-73
2022/07/16 11:31:52;;;;;;;0.50;0.50;;;10.40;99.90;;;;;;5033425;28;20033;-76
2022/07/16 11:34:22;;;;;;;0.68;0.50;;;10.40;99.90;;;;;;5034631;28;20051;-76
2022/07/16 11:36:55;;;;;;;1.08;0.63;;;10.40;99.90;;;;;;5045725;28;20028;-72
2022/07/16 11:39:25;;;;;;;1.02;0.70;;;10.40;99.90;;;;;;5047620;28;20418;-73
2022/07/16 11:41:54;;;;;;;1.20;0.95;;;10.50;99.90;;;;;;5045892;28;20057;-73
2022/07/16 11:44:29;;;;;;;0.95;0.65;;;10.50;99.90;;;;;;5047529;28;20037;-72
2022/07/16 11:47:00;;;;;;;0.82;0.50;;;10.50;99.90;;;;;;5046412;28;20043;-72
2022/07/16 11:49:36;;;;;;;1.27;0.60;;;10.50;99.90;;;;;;5047676;28;20025;-76
2022/07/16 11:52:26;;;;;;;0.50;0.40;;;10.50;99.90;;;;;;5048415;28;20512;-76
2022/07/16 11:54:56;;;;;;;1.27;0.70;;;10.50;99.90;;;;;;5039762;28;20427;-76
2022/07/16 11:57:24;;;;;;;0.82;0.80;;;10.50;99.90;;;;;;5032605;28;20049;-76
2022/07/16 11:59:53;;;;;;;0.40;0.40;;;10.50;99.90;;;;;;5032427;28;20018;-73
2022/07/16 12:02:26;;;;;;;3.17;0.80;;;10.50;99.90;;;;;;5035994;28;20041;-76
2022/07/16 12:04:57;;;;;;;0.70;0.63;;;10.40;99.90;;;;;;5033842;28;20026;-73
2022/07/16 12:07:25;;;;;;;0.68;0.60;;;10.40;99.90;;;;;;5050906;28;20421;-76
2022/07/16 12:09:57;;;;;;;0.95;0.60;;;10.40;99.90;;;;;;5033670;28;20026;-72
2022/07/16 12:12:31;;;;;;;0.77;0.70;;;10.30;99.90;;;;;;5042120;28;20025;-76
2022/07/16 12:15:01;;;;;;;1.02;0.70;;;10.30;99.90;;;;;;5053172;28;20025;-76
2022/07/16 12:17:39;;;;;;;0.55;0.50;;;10.30;99.90;;;;;;5052657;28;20410;-74
2022/07/16 12:20:14;;;;;;;1.33;0.80;;;10.30;99.90;;;;;;5055334;28;20024;-72
2022/07/16 12:22:46;;;;;;;0.95;0.60;;;10.20;99.90;;;;;;5055258;28;20041;-72
2022/07/16 12:25:20;;;;;;;1.80;0.60;;;10.20;99.90;;;;;;5053545;28;20024;-73
2022/07/16 12:27:53;;;;;;;0.45;0.43;;;10.20;99.90;;;;;;5055062;28;20039;-71
2022/07/16 12:30:36;;;;;;;0.70;0.50;;;10.20;99.90;;;;;;5055096;28;20024;-74
2022/07/16 12:33:22;;;;;;;1.00;0.52;;;10.20;99.90;;;;;;5055419;28;20025;-71
2022/07/16 12:35:55;;;;;;;0.52;0.45;;;10.20;99.90;;;;;;5053189;28;20020;-72
2022/07/16 12:38:59;;;;;;;0.68;0.60;;;10.20;99.90;;;;;;5055492;28;20104;-72
2022/07/16 12:41:34;;;;;;;1.45;0.68;;;10.20;99.90;;;;;;5055205;28;20044;-72
2022/07/16 12:44:10;;;;;;;0.90;0.50;;;10.20;99.90;;;;;;5055348;28;20052;-71
2022/07/16 12:46:46;;;;;;;0.45;0.40;;;10.20;99.90;;;;;;5054042;28;20036;-72
2022/07/16 12:49:17;;;;;;;0.93;0.50;;;10.20;99.90;;;;;;5053502;28;20107;-73
2022/07/16 12:51:48;;;;;;;0.85;0.60;;;10.20;99.90;;;;;;5055251;28;20024;-71
2022/07/16 12:54:17;;;;;;;1.50;0.57;;;10.20;99.90;;;;;;5055185;28;20028;-74
2022/07/16 12:59:33;;;;;;;0.88;0.60;;;10.20;99.90;;;;;;5053121;28;20527;-73
2022/07/16 13:02:02;;;;;;;0.73;0.60;;;10.20;99.90;;;;;;5054698;28;20076;-73
2022/07/16 13:04:30;;;;;;;1.20;0.60;;;10.10;99.90;;;;;;5054976;28;20024;-74
2022/07/16 13:06:58;;;;;;;0.85;0.57;;;10.10;99.90;;;;;;5054948;28;20086;-74
2022/07/16 13:09:26;;;;;;;1.15;0.45;;;10.10;99.90;;;;;;5054784;28;20466;-74
2022/07/16 13:11:54;;;;;;;1.15;0.70;;;10.10;99.90;;;;;;5054656;28;20501;-73
2022/07/16 13:14:22;;;;;;;4.68;0.60;;;10.10;99.90;;;;;;5054508;28;20013;-74